Time,TemperatureF,DewpointF,PressureIn,WindDirection,WindDirectionDegrees,WindSpeedMPH,WindSpeedGustMPH,Humidity,HourlyPrecipIn,Conditions,Clouds,dailyrainin,SoftwareType,DateUTC
2013-03-13 00:01:00,45.0,37.0,29.83,North,-999,-999.0,-999.0,73,-99.99,,,-99.99,,2013-03-13 04:01:00,
2013-03-13 00:21:00,44.0,36.0,29.82,North,-999,-999.0,-999.0,75,-99.99,,,-99.99,,2013-03-13 04:21:00,
2013-03-13 00:31:00,44.0,36.0,29.82,North,-999,-999.0,-999.0,75,-99.99,,,-99.99,,2013-03-13 04:31:00,
2013-03-13 00:42:00,44.0,36.0,29.82,North,-999,-999.0,-999.0,75,-99.99,,,-99.99,,2013-03-13 04:42:00,
2013-03-13 00:52:00,44.0,36.0,29.82,North,-999,-999.0,-999.0,75,-99.99,,,-99.99,,2013-03-13 04:52:00,
2013-03-13 01:21:00,43.0,36.0,29.84,North,-999,-999.0,-999.0,75,-99.99,,,-99.99,,2013-03-13 05:21:00,
2013-03-13 01:31:00,43.0,36.0,29.84,North,-999,-999.0,-999.0,76,-99.99,,,-99.99,,2013-03-13 05:31:00,
2013-03-13 01:42:00,43.0,36.0,29.84,North,-999,-999.0,-999.0,76,-99.99,,,-99.99,,2013-03-13 05:42:00,
2013-03-13 01:51:00,43.0,36.0,29.84,North,-999,-999.0,-999.0,76,-99.99,,,-99.99,,2013-03-13 05:51:00,
2013-03-13 02:01:00,43.0,36.0,29.84,North,-999,-999.0,-999.0,76,-99.99,,,-99.99,,2013-03-13 06:01:00,
2013-03-13 02:11:00,42.0,36.0,29.84,North,-999,-999.0,-999.0,79,-99.99,,,-99.99,,2013-03-13 06:11:00,
2013-03-13 02:21:00,42.0,36.0,29.84,North,-999,-999.0,-999.0,80,-99.99,,,-99.99,,2013-03-13 06:21:00,
2013-03-13 02:31:00,42.0,36.0,29.85,North,-999,-999.0,-999.0,80,-99.99,,,-99.99,,2013-03-13 06:31:00,
2013-03-13 02:41:00,42.0,36.0,29.85,North,-999,-999.0,-999.0,80,-99.99,,,-99.99,,2013-03-13 06:41:00,
2013-03-13 02:52:00,42.0,36.0,29.85,North,-999,-999.0,-999.0,80,-99.99,,,-99.99,,2013-03-13 06:52:00,
2013-03-13 03:01:00,42.0,36.0,29.85,North,-999,-999.0,-999.0,80,-99.99,,,-99.99,,2013-03-13 07:01:00,
2013-03-13 03:11:00,41.0,36.0,29.85,North,-999,-999.0,-999.0,80,-99.99,,,-99.99,,2013-03-13 07:11:00,
2013-03-13 03:41:00,40.0,36.0,29.85,North,-999,-999.0,-999.0,84,-99.99,,,-99.99,,2013-03-13 07:41:00,
2013-03-13 03:52:00,40.0,36.0,29.85,North,-999,-999.0,-999.0,84,-99.99,,,-99.99,,2013-03-13 07:52:00,
2013-03-13 04:02:00,40.0,36.0,29.85,North,-999,-999.0,-999.0,84,-99.99,,,-99.99,,2013-03-13 08:02:00,
2013-03-13 04:21:00,39.0,36.0,29.86,North,-999,-999.0,-999.0,87,-99.99,,,-99.99,,2013-03-13 08:21:00,
2013-03-13 04:31:00,39.0,36.0,29.86,North,-999,-999.0,-999.0,88,-99.99,,,-99.99,,2013-03-13 08:31:00,
2013-03-13 04:42:00,39.0,36.0,29.86,North,-999,-999.0,-999.0,88,-99.99,,,-99.99,,2013-03-13 08:42:00,
2013-03-13 04:52:00,39.0,36.0,29.86,North,-999,-999.0,-999.0,88,-99.99,,,-99.99,,2013-03-13 08:52:00,
2013-03-13 05:01:00,39.0,36.0,29.86,North,-999,-999.0,-999.0,88,-99.99,,,-99.99,,2013-03-13 09:01:00,
2013-03-13 05:11:00,38.0,36.0,29.87,North,-999,-999.0,-999.0,90,-99.99,,,-99.99,,2013-03-13 09:11:00,
2013-03-13 05:21:00,38.0,36.0,29.87,North,-999,-999.0,-999.0,91,-99.99,,,-99.99,,2013-03-13 09:21:00,
2013-03-13 05:31:00,38.0,36.0,29.87,North,-999,-999.0,-999.0,92,-99.99,,,-99.99,,2013-03-13 09:31:00,
2013-03-13 05:41:00,38.0,36.0,29.87,North,-999,-999.0,-999.0,92,-99.99,,,-99.99,,2013-03-13 09:41:00,
2013-03-13 05:52:00,38.0,36.0,29.87,North,-999,-999.0,-999.0,92,-99.99,,,-99.99,,2013-03-13 09:52:00,
2013-03-13 06:01:00,38.0,36.0,29.87,North,-999,-999.0,-999.0,92,-99.99,,,-99.99,,2013-03-13 10:01:00,
2013-03-13 06:11:00,38.0,36.0,29.88,North,-999,-999.0,-999.0,92,-99.99,,,-99.99,,2013-03-13 10:11:00,
2013-03-13 06:21:00,38.0,36.0,29.88,North,-999,-999.0,-999.0,89,-99.99,,,-99.99,,2013-03-13 10:21:00,
2013-03-13 06:31:00,39.0,35.0,29.88,North,-999,-999.0,-999.0,85,-99.99,,,-99.99,,2013-03-13 10:31:00,
2013-03-13 06:41:00,39.0,35.0,29.88,North,-999,-999.0,-999.0,85,-99.99,,,-99.99,,2013-03-13 10:41:00,
2013-03-13 06:52:00,39.0,35.0,29.88,North,-999,-999.0,-999.0,85,-99.99,,,-99.99,,2013-03-13 10:52:00,
2013-03-13 07:01:00,39.0,35.0,29.88,North,-999,-999.0,-999.0,85,-99.99,,,-99.99,,2013-03-13 11:01:00,
2013-03-13 07:11:00,39.0,34.0,29.89,North,-999,-999.0,-999.0,82,-99.99,,,-99.99,,2013-03-13 11:11:00,
2013-03-13 07:21:00,39.0,34.0,29.89,North,-999,-999.0,-999.0,81,-99.99,,,-99.99,,2013-03-13 11:21:00,
2013-03-13 07:31:00,39.0,34.0,29.89,North,-999,-999.0,-999.0,81,-99.99,,,-99.99,,2013-03-13 11:31:00,
2013-03-13 07:41:00,39.0,34.0,29.89,North,-999,-999.0,-999.0,81,-99.99,,,-99.99,,2013-03-13 11:41:00,
2013-03-13 07:52:00,39.0,34.0,29.89,North,-999,-999.0,-999.0,81,-99.99,,,-99.99,,2013-03-13 11:52:00,
2013-03-13 08:11:00,39.0,34.0,29.89,North,-999,-999.0,-999.0,81,-99.99,,,-99.99,,2013-03-13 12:11:00,
2013-03-13 08:32:00,40.0,34.0,29.89,North,-999,-999.0,-999.0,79,-99.99,,,-99.99,,2013-03-13 12:32:00,
2013-03-13 08:41:00,40.0,34.0,29.89,North,-999,-999.0,-999.0,79,-99.99,,,-99.99,,2013-03-13 12:41:00,
2013-03-13 08:52:00,40.0,34.0,29.89,North,-999,-999.0,-999.0,79,-99.99,,,-99.99,,2013-03-13 12:52:00,
2013-03-13 09:01:00,40.0,34.0,29.89,North,-999,-999.0,-999.0,79,-99.99,,,-99.99,,2013-03-13 13:01:00,
2013-03-13 09:11:00,42.0,32.0,29.90,North,-999,-999.0,-999.0,69,-99.99,,,-99.99,,2013-03-13 13:11:00,
2013-03-13 09:41:00,44.0,32.0,29.90,North,-999,-999.0,-999.0,62,-99.99,,,-99.99,,2013-03-13 13:41:00,
2013-03-13 09:52:00,44.0,32.0,29.90,North,-999,-999.0,-999.0,62,-99.99,,,-99.99,,2013-03-13 13:52:00,
2013-03-13 10:01:00,44.0,32.0,29.90,North,-999,-999.0,-999.0,62,-99.99,,,-99.99,,2013-03-13 14:01:00,
2013-03-13 10:21:00,42.0,32.0,29.90,North,-999,-999.0,-999.0,67,-99.99,,,-99.99,,2013-03-13 14:21:00,
2013-03-13 10:41:00,41.0,31.0,29.90,North,-999,-999.0,-999.0,68,-99.99,,,-99.99,,2013-03-13 14:41:00,
2013-03-13 10:51:00,41.0,31.0,29.90,North,-999,-999.0,-999.0,68,-99.99,,,-99.99,,2013-03-13 14:51:00,
2013-03-13 11:01:00,41.0,31.0,29.90,North,-999,-999.0,-999.0,68,-99.99,,,-99.99,,2013-03-13 15:01:00,
2013-03-13 11:11:00,41.0,30.0,29.89,North,-999,-999.0,-999.0,64,-99.99,,,-99.99,,2013-03-13 15:11:00,
2013-03-13 11:21:00,41.0,31.0,29.89,North,-999,-999.0,-999.0,65,-99.99,,,-99.99,,2013-03-13 15:21:00,
2013-03-13 11:31:00,41.0,31.0,29.89,North,-999,-999.0,-999.0,65,-99.99,,,-99.99,,2013-03-13 15:31:00,
2013-03-13 11:41:00,41.0,31.0,29.89,North,-999,-999.0,-999.0,65,-99.99,,,-99.99,,2013-03-13 15:41:00,
2013-03-13 11:51:00,41.0,31.0,29.89,North,-999,-999.0,-999.0,65,-99.99,,,-99.99,,2013-03-13 15:51:00,
2013-03-13 12:01:00,41.0,31.0,29.89,North,-999,-999.0,-999.0,65,-99.99,,,-99.99,,2013-03-13 16:01:00,
2013-03-13 12:11:00,42.0,27.0,29.88,North,-999,-999.0,-999.0,55,-99.99,,,-99.99,,2013-03-13 16:11:00,
2013-03-13 12:21:00,43.0,29.0,29.88,North,-999,-999.0,-999.0,57,-99.99,,,-99.99,,2013-03-13 16:21:00,
2013-03-13 12:31:00,43.0,28.0,29.88,North,-999,-999.0,-999.0,56,-99.99,,,-99.99,,2013-03-13 16:31:00,
2013-03-13 12:41:00,43.0,28.0,29.88,North,-999,-999.0,-999.0,56,-99.99,,,-99.99,,2013-03-13 16:41:00,
2013-03-13 12:52:00,43.0,28.0,29.88,North,-999,-999.0,-999.0,56,-99.99,,,-99.99,,2013-03-13 16:52:00,
2013-03-13 13:01:00,43.0,28.0,29.88,North,-999,-999.0,-999.0,56,-99.99,,,-99.99,,2013-03-13 17:01:00,
2013-03-13 13:21:00,43.0,28.0,29.86,North,-999,-999.0,-999.0,55,-99.99,,,-99.99,,2013-03-13 17:21:00,
2013-03-13 13:31:00,44.0,28.0,29.86,North,-999,-999.0,-999.0,53,-99.99,,,-99.99,,2013-03-13 17:31:00,
2013-03-13 13:41:00,44.0,28.0,29.86,North,-999,-999.0,-999.0,53,-99.99,,,-99.99,,2013-03-13 17:41:00,
2013-03-13 13:52:00,44.0,28.0,29.86,North,-999,-999.0,-999.0,53,-99.99,,,-99.99,,2013-03-13 17:52:00,
2013-03-13 14:01:00,44.0,28.0,29.86,North,-999,-999.0,-999.0,53,-99.99,,,-99.99,,2013-03-13 18:01:00,
2013-03-13 14:21:00,44.0,28.0,29.85,North,-999,-999.0,-999.0,51,-99.99,,,-99.99,,2013-03-13 18:21:00,
2013-03-13 14:32:00,45.0,28.0,29.84,North,-999,-999.0,-999.0,51,-99.99,,,-99.99,,2013-03-13 18:32:00,
2013-03-13 14:41:00,45.0,28.0,29.84,North,-999,-999.0,-999.0,51,-99.99,,,-99.99,,2013-03-13 18:41:00,
2013-03-13 14:51:00,45.0,28.0,29.84,North,-999,-999.0,-999.0,51,-99.99,,,-99.99,,2013-03-13 18:51:00,
2013-03-13 15:01:00,45.0,28.0,29.84,North,-999,-999.0,-999.0,51,-99.99,,,-99.99,,2013-03-13 19:01:00,
2013-03-13 15:21:00,45.0,27.0,29.82,North,-999,-999.0,-999.0,49,-99.99,,,-99.99,,2013-03-13 19:21:00,
2013-03-13 15:31:00,46.0,29.0,29.81,North,-999,-999.0,-999.0,50,-99.99,,,-99.99,,2013-03-13 19:31:00,
2013-03-13 15:42:00,46.0,29.0,29.81,North,-999,-999.0,-999.0,50,-99.99,,,-99.99,,2013-03-13 19:42:00,
2013-03-13 15:52:00,46.0,29.0,29.81,North,-999,-999.0,-999.0,50,-99.99,,,-99.99,,2013-03-13 19:52:00,
2013-03-13 16:01:00,46.0,29.0,29.81,North,-999,-999.0,-999.0,50,-99.99,,,-99.99,,2013-03-13 20:01:00,
2013-03-13 16:11:00,46.0,28.0,29.81,North,-999,-999.0,-999.0,49,-99.99,,,-99.99,,2013-03-13 20:11:00,
2013-03-13 16:21:00,46.0,28.0,29.81,North,-999,-999.0,-999.0,49,-99.99,,,-99.99,,2013-03-13 20:21:00,
2013-03-13 16:31:00,46.0,28.0,29.81,North,-999,-999.0,-999.0,49,-99.99,,,-99.99,,2013-03-13 20:31:00,
2013-03-13 16:41:00,46.0,28.0,29.81,North,-999,-999.0,-999.0,49,-99.99,,,-99.99,,2013-03-13 20:41:00,
2013-03-13 17:11:00,46.0,26.0,29.79,North,-999,-999.0,-999.0,45,-99.99,,,-99.99,,2013-03-13 21:11:00,
2013-03-13 17:21:00,46.0,26.0,29.79,North,-999,-999.0,-999.0,44,-99.99,,,-99.99,,2013-03-13 21:21:00,
2013-03-13 17:31:00,47.0,25.0,29.79,North,-999,-999.0,-999.0,41,-99.99,,,-99.99,,2013-03-13 21:31:00,
2013-03-13 17:41:00,47.0,25.0,29.79,North,-999,-999.0,-999.0,41,-99.99,,,-99.99,,2013-03-13 21:41:00,
2013-03-13 17:51:00,47.0,25.0,29.79,North,-999,-999.0,-999.0,41,-99.99,,,-99.99,,2013-03-13 21:51:00,
2013-03-13 18:01:00,47.0,25.0,29.79,North,-999,-999.0,-999.0,41,-99.99,,,-99.99,,2013-03-13 22:01:00,
2013-03-13 18:21:00,47.0,25.0,29.80,North,-999,-999.0,-999.0,41,-99.99,,,-99.99,,2013-03-13 22:21:00,
2013-03-13 18:31:00,46.0,27.0,29.80,North,-999,-999.0,-999.0,47,-99.99,,,-99.99,,2013-03-13 22:31:00,
2013-03-13 18:41:00,46.0,27.0,29.80,North,-999,-999.0,-999.0,47,-99.99,,,-99.99,,2013-03-13 22:41:00,
2013-03-13 18:51:00,46.0,27.0,29.80,North,-999,-999.0,-999.0,47,-99.99,,,-99.99,,2013-03-13 22:51:00,
2013-03-13 19:01:00,46.0,27.0,29.80,North,-999,-999.0,-999.0,47,-99.99,,,-99.99,,2013-03-13 23:01:00,
2013-03-13 19:21:00,46.0,26.0,29.81,North,-999,-999.0,-999.0,46,-99.99,,,-99.99,,2013-03-13 23:21:00,
2013-03-13 19:31:00,45.0,27.0,29.81,North,-999,-999.0,-999.0,49,-99.99,,,-99.99,,2013-03-13 23:31:00,
2013-03-13 19:41:00,45.0,27.0,29.81,North,-999,-999.0,-999.0,49,-99.99,,,-99.99,,2013-03-13 23:41:00,
2013-03-13 19:51:00,45.0,27.0,29.81,North,-999,-999.0,-999.0,49,-99.99,,,-99.99,,2013-03-13 23:51:00,
2013-03-13 20:01:00,45.0,27.0,29.81,North,-999,-999.0,-999.0,49,-99.99,,,-99.99,,2013-03-14 00:01:00,
2013-03-13 20:31:00,44.0,27.0,29.84,North,-999,-999.0,-999.0,51,-99.99,,,-99.99,,2013-03-14 00:31:00,
2013-03-13 20:41:00,44.0,27.0,29.84,North,-999,-999.0,-999.0,51,-99.99,,,-99.99,,2013-03-14 00:41:00,
2013-03-13 20:52:00,44.0,27.0,29.84,North,-999,-999.0,-999.0,51,-99.99,,,-99.99,,2013-03-14 00:52:00,
2013-03-13 21:01:00,44.0,27.0,29.84,North,-999,-999.0,-999.0,51,-99.99,,,-99.99,,2013-03-14 01:01:00,
2013-03-13 21:11:00,43.0,30.0,29.85,North,-999,-999.0,-999.0,59,-99.99,,,-99.99,,2013-03-14 01:11:00,
2013-03-13 21:21:00,42.0,30.0,29.85,North,-999,-999.0,-999.0,60,-99.99,,,-99.99,,2013-03-14 01:21:00,
2013-03-13 21:31:00,42.0,31.0,29.86,North,-999,-999.0,-999.0,63,-99.99,,,-99.99,,2013-03-14 01:31:00,
2013-03-13 21:41:00,42.0,31.0,29.86,North,-999,-999.0,-999.0,63,-99.99,,,-99.99,,2013-03-14 01:41:00,
2013-03-13 21:52:00,42.0,31.0,29.86,North,-999,-999.0,-999.0,63,-99.99,,,-99.99,,2013-03-14 01:52:00,
2013-03-13 22:01:00,42.0,31.0,29.86,North,-999,-999.0,-999.0,63,-99.99,,,-99.99,,2013-03-14 02:01:00,
2013-03-13 22:11:00,41.0,31.0,29.87,North,-999,-999.0,-999.0,66,-99.99,,,-99.99,,2013-03-14 02:11:00,
2013-03-13 22:21:00,41.0,31.0,29.87,North,-999,-999.0,-999.0,67,-99.99,,,-99.99,,2013-03-14 02:21:00,
2013-03-13 22:31:00,41.0,32.0,29.88,North,-999,-999.0,-999.0,70,-99.99,,,-99.99,,2013-03-14 02:31:00,
2013-03-13 22:41:00,41.0,32.0,29.88,North,-999,-999.0,-999.0,70,-99.99,,,-99.99,,2013-03-14 02:41:00,
2013-03-13 22:51:00,41.0,32.0,29.88,North,-999,-999.0,-999.0,70,-99.99,,,-99.99,,2013-03-14 02:51:00,
2013-03-13 23:01:00,41.0,32.0,29.88,North,-999,-999.0,-999.0,70,-99.99,,,-99.99,,2013-03-14 03:01:00,
2013-03-13 23:11:00,40.0,31.0,29.88,North,-999,-999.0,-999.0,68,-99.99,,,-99.99,,2013-03-14 03:11:00,
2013-03-13 23:21:00,40.0,32.0,29.88,North,-999,-999.0,-999.0,71,-99.99,,,-99.99,,2013-03-14 03:21:00,
2013-03-13 23:31:00,40.0,32.0,29.88,North,-999,-999.0,-999.0,73,-99.99,,,-99.99,,2013-03-14 03:31:00,
2013-03-13 23:41:00,40.0,32.0,29.88,North,-999,-999.0,-999.0,73,-99.99,,,-99.99,,2013-03-14 03:41:00,
2013-03-13 23:52:00,40.0,32.0,29.88,North,-999,-999.0,-999.0,73,-99.99,,,-99.99,,2013-03-14 03:52:00,